createdAt,value
2023-05-25T00:01:36.775Z,11.77
2023-05-25T00:04:05.367Z,11.80
2023-05-25T00:06:37.544Z,11.80
2023-05-25T00:09:06.474Z,11.85
2023-05-25T00:11:36.160Z,11.83
2023-05-25T00:14:04.442Z,11.76
2023-05-25T00:16:37.652Z,11.73
2023-05-25T00:19:07.445Z,11.72
2023-05-25T00:21:38.359Z,11.69
2023-05-25T00:24:06.951Z,11.65
2023-05-25T00:26:35.773Z,11.66
2023-05-25T00:29:04.528Z,11.73
2023-05-25T00:31:35.602Z,11.77
2023-05-25T00:34:04.108Z,11.71
2023-05-25T00:36:32.334Z,11.68
2023-05-25T00:39:00.611Z,11.69
2023-05-25T00:41:29.068Z,11.67
2023-05-25T00:43:57.831Z,11.67
2023-05-25T00:46:27.356Z,11.65
2023-05-25T00:48:56.465Z,11.66
2023-05-25T00:51:26.651Z,11.67
2023-05-25T00:53:55.020Z,11.68
2023-05-25T00:56:29.138Z,11.65
2023-05-25T00:59:03.705Z,11.62
2023-05-25T01:01:40.193Z,11.60
2023-05-25T01:04:11.344Z,11.61
2023-05-25T01:06:43.440Z,11.64
2023-05-25T01:09:14.691Z,11.67
2023-05-25T01:11:49.017Z,11.69
2023-05-25T01:14:21.049Z,11.74
2023-05-25T01:16:50.057Z,11.76
2023-05-25T01:19:18.745Z,11.77
2023-05-25T01:22:00.966Z,11.77
2023-05-25T01:24:49.199Z,11.78
2023-05-25T01:27:28.371Z,11.76
2023-05-25T01:29:59.471Z,11.76
2023-05-25T01:32:29.149Z,11.80
2023-05-25T01:34:58.906Z,11.79
2023-05-25T01:37:28.253Z,11.77
2023-05-25T01:39:58.083Z,11.75
2023-05-25T01:42:26.332Z,11.71
2023-05-25T01:44:54.708Z,11.70
2023-05-25T01:47:37.596Z,11.70
2023-05-25T01:50:15.021Z,11.70
2023-05-25T01:52:51.688Z,11.63
2023-05-25T01:55:21.656Z,11.62
2023-05-25T01:57:58.025Z,11.62
2023-05-25T02:00:31.502Z,11.62
2023-05-25T02:03:01.793Z,11.59
2023-05-25T02:05:32.674Z,11.53
2023-05-25T02:08:01.724Z,11.49
2023-05-25T02:10:32.040Z,11.47
2023-05-25T02:13:00.427Z,11.48
2023-05-25T02:15:32.924Z,11.49
2023-05-25T02:18:01.404Z,11.54
2023-05-25T02:20:32.477Z,11.56
2023-05-25T02:23:00.957Z,11.55
2023-05-25T02:25:29.205Z,11.51
2023-05-25T02:35:26.339Z,11.62
2023-05-25T02:37:55.049Z,11.58
2023-05-25T02:40:24.339Z,11.59
2023-05-25T02:42:52.669Z,11.59
2023-05-25T02:45:20.979Z,11.59
2023-05-25T02:47:49.354Z,11.58
2023-05-25T02:50:18.034Z,11.59
2023-05-25T02:52:52.267Z,11.57
2023-05-25T02:55:20.730Z,11.57
2023-05-25T02:57:49.177Z,11.61
2023-05-25T03:00:30.248Z,11.64
2023-05-25T03:02:58.898Z,11.62
2023-05-25T03:05:28.160Z,11.60
2023-05-25T03:07:56.586Z,11.61
2023-05-25T03:10:24.927Z,11.65
2023-05-25T03:12:53.497Z,11.66
2023-05-25T03:15:23.397Z,11.69
2023-05-25T03:17:54.053Z,11.72
2023-05-25T03:20:24.833Z,11.75
2023-05-25T03:22:56.062Z,11.75
2023-05-25T03:25:25.109Z,11.76
2023-05-25T03:27:54.438Z,11.73
2023-05-25T03:30:23.566Z,11.76
2023-05-25T03:32:52.793Z,11.81
2023-05-25T03:35:22.538Z,11.85
2023-05-25T03:37:50.957Z,11.87
2023-05-25T03:40:19.464Z,11.90
2023-05-25T03:42:47.797Z,11.92
2023-05-25T03:45:16.077Z,11.93
2023-05-25T03:47:45.758Z,11.86
2023-05-25T03:50:14.565Z,11.82
2023-05-25T03:52:43.610Z,11.86
2023-05-25T03:55:11.867Z,11.97
2023-05-25T03:57:40.405Z,12.11
2023-05-25T04:00:09.869Z,12.23
2023-05-25T04:02:41.222Z,12.26
2023-05-25T04:05:09.938Z,12.22
2023-05-25T04:07:38.302Z,12.13
2023-05-25T04:10:07.418Z,12.14
2023-05-25T04:12:36.478Z,12.20
2023-05-25T04:15:05.769Z,12.30
2023-05-25T04:17:39.475Z,12.40
2023-05-25T04:20:11.877Z,12.48
2023-05-25T04:22:40.263Z,12.56
2023-05-25T04:25:10.569Z,12.63
2023-05-25T04:27:39.241Z,12.70
2023-05-25T04:30:11.338Z,12.71
2023-05-25T04:33:02.862Z,12.76
2023-05-25T04:35:50.908Z,12.83
2023-05-25T04:38:20.557Z,12.84
2023-05-25T04:40:49.072Z,12.87
2023-05-25T04:43:20.789Z,12.96
2023-05-25T04:45:51.489Z,13.08
2023-05-25T04:48:21.750Z,13.15
2023-05-25T04:50:50.334Z,13.20
2023-05-25T04:53:18.751Z,13.27
2023-05-25T04:55:47.215Z,13.32
2023-05-25T04:58:16.003Z,13.39
2023-05-25T05:00:45.671Z,13.51
2023-05-25T05:03:14.767Z,13.66
2023-05-25T05:05:45.512Z,13.86
2023-05-25T05:08:18.886Z,14.12
2023-05-25T05:10:47.170Z,14.30
2023-05-25T05:13:15.444Z,14.49
2023-05-25T05:15:44.079Z,14.59
2023-05-25T05:18:14.205Z,14.61
2023-05-25T05:28:30.062Z,14.52
2023-05-25T05:30:59.622Z,14.58
2023-05-25T05:33:28.175Z,14.76
2023-05-25T05:35:56.601Z,15.07
2023-05-25T05:38:26.031Z,15.18
2023-05-25T05:40:54.771Z,15.25
2023-05-25T05:43:24.513Z,15.33
2023-05-25T05:45:52.785Z,15.75
2023-05-25T05:48:21.424Z,16.12
2023-05-25T05:50:49.857Z,16.46
2023-05-25T05:53:19.092Z,16.93
2023-05-25T05:55:49.284Z,17.39
2023-05-25T05:58:20.244Z,17.97
2023-05-25T06:00:48.733Z,18.67
2023-05-25T06:03:17.014Z,19.39
2023-05-25T06:05:45.516Z,20.08
2023-05-25T06:08:14.508Z,20.68
2023-05-25T06:10:42.960Z,21.23
2023-05-25T06:13:11.887Z,21.74
2023-05-25T06:15:41.059Z,22.12
2023-05-25T06:18:11.644Z,22.27
2023-05-25T06:20:40.091Z,22.61
2023-05-25T06:23:11.604Z,22.76
2023-05-25T06:25:40.822Z,23.04
2023-05-25T06:28:09.313Z,23.28
2023-05-25T06:30:37.655Z,23.70
2023-05-25T06:33:06.483Z,23.60
2023-05-25T06:35:34.797Z,23.73
2023-05-25T06:38:03.563Z,23.97
2023-05-25T06:40:31.912Z,24.41
2023-05-25T06:43:00.257Z,24.36
2023-05-25T06:45:50.544Z,24.86
2023-05-25T06:48:18.776Z,25.17
2023-05-25T06:50:47.246Z,25.25
2023-05-25T06:53:16.118Z,25.12
2023-05-25T06:55:44.879Z,25.20
2023-05-25T06:58:13.398Z,25.40
2023-05-25T07:00:41.716Z,25.66
2023-05-25T07:03:10.138Z,26.01
2023-05-25T07:05:38.532Z,26.32
2023-05-25T07:08:06.910Z,26.55
2023-05-25T07:10:35.129Z,26.83
2023-05-25T07:13:03.366Z,26.98
2023-05-25T07:15:31.720Z,26.80
2023-05-25T07:17:59.970Z,26.85
2023-05-25T07:20:30.299Z,27.14
2023-05-25T07:22:58.841Z,27.59
2023-05-25T07:25:27.176Z,28.01
2023-05-25T07:27:55.720Z,28.21
2023-05-25T07:30:24.183Z,28.38
2023-05-25T07:32:52.654Z,28.62
2023-05-25T07:35:21.176Z,28.57
2023-05-25T07:38:04.699Z,28.89
2023-05-25T07:40:33.115Z,29.02
2023-05-25T07:43:01.638Z,29.16
2023-05-25T07:45:29.938Z,29.36
2023-05-25T07:47:58.312Z,29.15
2023-05-25T07:50:26.733Z,29.02
2023-05-25T07:52:54.974Z,28.99
2023-05-25T07:55:23.175Z,29.30
2023-05-25T07:57:51.614Z,29.53
2023-05-25T08:00:20.258Z,29.84
2023-05-25T08:02:49.592Z,29.81
2023-05-25T08:05:18.257Z,29.04
2023-05-25T08:07:46.811Z,28.69
2023-05-25T08:10:15.121Z,28.36
2023-05-25T08:12:49.532Z,27.85
2023-05-25T08:15:19.149Z,27.29
2023-05-25T08:17:49.541Z,26.71
2023-05-25T08:20:17.999Z,25.85
2023-05-25T08:22:46.371Z,25.33
2023-05-25T08:25:14.713Z,24.95
2023-05-25T08:27:42.982Z,24.55
2023-05-25T08:30:11.632Z,23.83
2023-05-25T08:32:39.917Z,23.51
2023-05-25T08:35:08.467Z,23.55
2023-05-25T08:37:36.686Z,23.70
2023-05-25T08:40:08.107Z,24.45
2023-05-25T08:42:36.328Z,25.10
2023-05-25T08:45:04.936Z,25.49
2023-05-25T08:47:35.016Z,25.11
2023-05-25T08:50:04.082Z,24.99
2023-05-25T08:52:36.503Z,24.89
2023-05-25T08:55:07.153Z,25.23
2023-05-25T08:58:02.984Z,25.80
2023-05-25T09:00:45.193Z,26.44
2023-05-25T09:03:20.266Z,26.65
2023-05-25T09:05:49.863Z,26.18
2023-05-25T09:08:18.499Z,26.72
2023-05-25T09:10:47.457Z,27.21
2023-05-25T09:15:47.960Z,27.65
2023-05-25T09:18:16.435Z,27.64
2023-05-25T09:20:47.139Z,27.93
2023-05-25T09:23:16.399Z,28.23
2023-05-25T09:25:46.541Z,28.36
2023-05-25T09:28:26.216Z,28.44
2023-05-25T09:30:56.360Z,28.60
2023-05-25T09:33:24.719Z,28.36
2023-05-25T09:35:53.099Z,28.28
2023-05-25T09:38:22.113Z,28.23
2023-05-25T09:40:51.545Z,28.02
2023-05-25T09:43:32.317Z,27.98
2023-05-25T09:46:07.948Z,27.71
2023-05-25T09:48:36.364Z,27.12
2023-05-25T09:51:07.205Z,26.73
2023-05-25T09:53:35.827Z,26.81
2023-05-25T09:56:04.469Z,26.91
2023-05-25T09:58:33.098Z,26.62
2023-05-25T10:01:01.425Z,26.13
2023-05-25T10:03:29.752Z,26.06
2023-05-25T10:05:58.233Z,26.20
2023-05-25T10:08:29.083Z,26.31
2023-05-25T10:10:57.610Z,25.73
2023-05-25T10:13:29.570Z,25.31
2023-05-25T10:15:59.505Z,24.91
2023-05-25T10:18:32.241Z,24.50
2023-05-25T10:21:05.591Z,24.14
2023-05-25T10:23:42.196Z,23.31
2023-05-25T10:26:22.849Z,22.38
2023-05-25T10:28:55.831Z,21.27
2023-05-25T10:31:28.506Z,20.56
2023-05-25T10:33:58.487Z,20.07
2023-05-25T10:36:27.649Z,19.52
2023-05-25T10:38:56.331Z,19.08
2023-05-25T10:41:24.617Z,18.75
2023-05-25T10:43:53.639Z,18.51
2023-05-25T10:46:22.373Z,18.31
2023-05-25T10:49:00.691Z,18.12
2023-05-25T10:51:39.463Z,17.98
2023-05-25T10:54:08.342Z,17.83
2023-05-25T10:56:36.690Z,17.80
2023-05-25T10:59:04.994Z,17.83
2023-05-25T11:01:33.874Z,17.88
2023-05-25T11:04:11.479Z,17.97
2023-05-25T11:06:45.939Z,18.11
2023-05-25T11:09:25.669Z,18.39
2023-05-25T11:11:55.728Z,18.72
2023-05-25T11:14:32.198Z,19.02
2023-05-25T11:17:10.804Z,19.35
2023-05-25T11:19:51.794Z,19.85
2023-05-25T11:22:21.385Z,20.17
2023-05-25T11:24:51.723Z,20.35
2023-05-25T11:27:30.846Z,20.44
2023-05-25T11:30:00.106Z,20.56
2023-05-25T11:32:29.472Z,20.68
2023-05-25T11:34:58.741Z,20.99
2023-05-25T11:37:31.581Z,21.39
2023-05-25T11:40:00.210Z,21.71
2023-05-25T11:42:29.560Z,21.95
2023-05-25T11:45:03.291Z,22.06
2023-05-25T11:47:33.163Z,22.32
2023-05-25T11:50:02.614Z,22.51
2023-05-25T11:52:31.155Z,22.69
2023-05-25T11:54:59.608Z,22.95
2023-05-25T11:57:27.975Z,23.09
2023-05-25T12:00:06.941Z,23.13
2023-05-25T12:02:39.793Z,23.36
2023-05-25T12:05:10.717Z,23.59
2023-05-25T12:07:44.893Z,23.56
2023-05-25T12:10:18.704Z,23.27
2023-05-25T12:12:49.421Z,23.02
2023-05-25T12:15:22.788Z,23.11
2023-05-25T12:17:52.481Z,23.15
2023-05-25T12:20:21.643Z,23.11
2023-05-25T12:22:50.331Z,23.11
2023-05-25T12:25:21.664Z,23.19
2023-05-25T12:28:09.557Z,23.47
2023-05-25T12:30:38.437Z,23.64
2023-05-25T12:33:07.538Z,23.83
2023-05-25T12:35:50.124Z,23.95
2023-05-25T12:38:19.213Z,23.76
2023-05-25T12:40:48.016Z,23.78
2023-05-25T12:43:17.878Z,23.78
2023-05-25T12:45:46.711Z,23.96
2023-05-25T12:48:15.154Z,23.96
2023-05-25T12:50:59.115Z,23.98
2023-05-25T12:53:29.167Z,24.11
2023-05-25T12:56:04.657Z,24.17
2023-05-25T12:58:33.024Z,24.27
2023-05-25T13:01:01.403Z,24.44
2023-05-25T13:03:31.022Z,24.34
2023-05-25T13:06:03.613Z,24.43
2023-05-25T13:08:32.054Z,24.50
2023-05-25T13:11:01.471Z,24.38
2023-05-25T13:13:29.820Z,24.09
2023-05-25T13:15:58.603Z,23.74
2023-05-25T13:18:26.973Z,23.46
2023-05-25T13:20:56.670Z,23.46
2023-05-25T13:23:25.839Z,23.36
2023-05-25T13:25:54.237Z,23.42
2023-05-25T13:28:22.538Z,23.73
2023-05-25T13:30:50.834Z,24.04
2023-05-25T13:33:19.243Z,24.08
2023-05-25T13:36:08.072Z,23.90
2023-05-25T13:38:37.719Z,23.43
2023-05-25T13:41:06.015Z,22.92
2023-05-25T13:43:35.430Z,22.43
2023-05-25T13:46:04.207Z,21.92
2023-05-25T13:48:32.632Z,21.45
2023-05-25T13:51:03.360Z,21.19
2023-05-25T13:53:32.201Z,20.87
2023-05-25T13:56:00.661Z,20.59
2023-05-25T13:58:29.164Z,20.40
2023-05-25T14:00:57.497Z,20.25
2023-05-25T14:03:25.946Z,20.15
2023-05-25T14:05:54.263Z,20.25
2023-05-25T14:08:22.635Z,20.49
2023-05-25T14:10:50.960Z,20.85
2023-05-25T14:13:19.301Z,21.15
2023-05-25T14:15:48.033Z,21.21
2023-05-25T14:18:16.633Z,21.17
2023-05-25T14:20:45.067Z,21.09
2023-05-25T14:23:15.793Z,20.97
2023-05-25T14:25:46.615Z,20.73
2023-05-25T14:28:15.219Z,20.48
2023-05-25T14:30:43.456Z,20.32
2023-05-25T14:33:14.362Z,20.14
2023-05-25T14:35:43.224Z,19.81
2023-05-25T14:38:11.916Z,19.99
2023-05-25T14:40:40.231Z,20.13
2023-05-25T14:43:08.757Z,20.34
2023-05-25T14:45:37.058Z,20.49
2023-05-25T14:48:15.846Z,20.61
2023-05-25T14:50:45.605Z,20.66
2023-05-25T14:53:13.926Z,20.64
2023-05-25T14:55:42.547Z,20.59
2023-05-25T14:58:11.404Z,20.47
2023-05-25T15:00:39.731Z,20.41
2023-05-25T15:03:08.209Z,20.35
2023-05-25T15:05:36.753Z,20.24
2023-05-25T15:08:05.179Z,20.12
2023-05-25T15:10:33.531Z,19.96
2023-05-25T15:13:01.892Z,19.85
2023-05-25T15:15:30.243Z,19.75
2023-05-25T15:17:58.660Z,19.76
2023-05-25T15:20:27.263Z,19.73
2023-05-25T15:22:55.603Z,19.70
2023-05-25T15:25:35.187Z,19.74
2023-05-25T15:28:04.364Z,19.91
2023-05-25T15:30:34.645Z,20.08
2023-05-25T15:33:03.528Z,20.17
2023-05-25T15:35:32.581Z,20.23
2023-05-25T15:38:01.887Z,20.22
2023-05-25T15:40:30.833Z,20.16
2023-05-25T15:42:59.197Z,20.04
2023-05-25T15:45:27.545Z,19.94
2023-05-25T15:47:56.066Z,19.89
2023-05-25T15:50:24.473Z,19.81
2023-05-25T15:52:52.735Z,19.71
2023-05-25T15:55:21.247Z,19.61
2023-05-25T15:57:49.450Z,19.41
2023-05-25T16:00:18.049Z,19.26
2023-05-25T16:02:46.613Z,19.20
2023-05-25T16:05:15.140Z,19.15
2023-05-25T16:07:43.466Z,19.01
2023-05-25T16:10:11.855Z,18.85
2023-05-25T16:12:40.183Z,18.71
2023-05-25T16:15:09.068Z,18.49
2023-05-25T16:17:37.461Z,18.34
2023-05-25T16:20:07.018Z,18.11
2023-05-25T16:22:35.529Z,17.81
2023-05-25T16:25:03.922Z,17.63
2023-05-25T16:27:32.258Z,17.50
2023-05-25T16:30:01.128Z,17.35
2023-05-25T16:32:29.550Z,17.09
2023-05-25T16:34:57.937Z,16.93
2023-05-25T16:37:26.218Z,16.75
2023-05-25T16:39:54.408Z,16.54
2023-05-25T16:42:25.204Z,16.40
2023-05-25T16:44:53.519Z,16.25
2023-05-25T16:47:21.823Z,16.14
2023-05-25T16:49:50.290Z,16.01
2023-05-25T16:52:18.714Z,15.85
2023-05-25T16:54:47.151Z,15.74
2023-05-25T16:57:15.425Z,15.60
2023-05-25T16:59:43.699Z,15.53
2023-05-25T17:02:12.070Z,15.42
2023-05-25T17:04:40.301Z,15.41
2023-05-25T17:07:08.957Z,15.40
2023-05-25T17:09:37.312Z,15.37
2023-05-25T17:12:06.681Z,15.34
2023-05-25T17:14:35.075Z,15.30
2023-05-25T17:17:03.965Z,15.23
2023-05-25T17:19:32.510Z,15.15
2023-05-25T17:22:00.839Z,15.07
2023-05-25T17:24:29.217Z,14.95
2023-05-25T17:26:57.925Z,14.83
2023-05-25T17:29:26.249Z,14.75
2023-05-25T17:31:54.598Z,14.69
2023-05-25T17:34:23.066Z,14.67
2023-05-25T17:36:51.361Z,14.66
2023-05-25T17:39:19.878Z,14.68
2023-05-25T17:41:50.184Z,14.71
2023-05-25T17:44:18.591Z,14.73
2023-05-25T17:46:46.894Z,14.69
2023-05-25T17:49:15.150Z,14.63
2023-05-25T17:51:43.424Z,14.54
2023-05-25T17:54:15.590Z,14.43
2023-05-25T17:56:44.449Z,14.34
2023-05-25T17:59:12.844Z,14.28
2023-05-25T18:01:42.076Z,14.21
2023-05-25T18:04:10.632Z,14.18
2023-05-25T18:06:39.066Z,14.18
2023-05-25T18:09:07.533Z,14.13
2023-05-25T18:11:36.875Z,14.07
2023-05-25T18:14:05.286Z,13.98
2023-05-25T18:16:39.404Z,13.89
2023-05-25T18:19:09.579Z,13.80
2023-05-25T18:21:38.663Z,13.71
2023-05-25T18:24:08.544Z,13.63
2023-05-25T18:26:37.079Z,13.59
2023-05-25T18:29:05.458Z,13.54
2023-05-25T18:31:33.994Z,13.51
2023-05-25T18:34:02.490Z,13.50
2023-05-25T18:36:31.135Z,13.48
2023-05-25T18:38:59.422Z,13.45
2023-05-25T18:41:27.720Z,13.41
2023-05-25T18:43:56.014Z,13.36
2023-05-25T18:46:25.658Z,13.30
2023-05-25T18:48:54.170Z,13.24
2023-05-25T18:51:25.890Z,13.20
2023-05-25T18:53:55.050Z,13.16
2023-05-25T18:56:23.381Z,13.10
2023-05-25T18:58:54.818Z,13.08
2023-05-25T19:01:27.375Z,13.06
2023-05-25T19:03:58.568Z,13.00
2023-05-25T19:06:27.405Z,12.91
2023-05-25T19:08:55.885Z,12.84
2023-05-25T19:11:24.187Z,12.73
2023-05-25T19:13:52.431Z,12.64
2023-05-25T19:16:20.837Z,12.56
2023-05-25T19:18:49.359Z,12.48
2023-05-25T19:21:17.663Z,12.41
2023-05-25T19:23:45.929Z,12.36
2023-05-25T19:26:14.520Z,12.31
2023-05-25T19:28:42.787Z,12.25
2023-05-25T19:31:11.022Z,12.16
2023-05-25T19:33:39.457Z,12.11
2023-05-25T19:36:08.031Z,12.03
2023-05-25T19:38:41.432Z,11.96
2023-05-25T19:41:10.680Z,11.90
2023-05-25T19:43:39.446Z,11.87
2023-05-25T19:46:07.725Z,11.85
2023-05-25T19:48:36.675Z,11.82
2023-05-25T19:51:05.003Z,11.83
2023-05-25T19:53:33.346Z,11.81
2023-05-25T19:56:03.410Z,11.79
2023-05-25T19:58:31.706Z,11.75
2023-05-25T20:01:00.086Z,11.73
2023-05-25T20:03:28.645Z,11.72
2023-05-25T20:05:58.125Z,11.69
2023-05-25T20:08:27.487Z,11.66
2023-05-25T20:10:55.801Z,11.63
2023-05-25T20:13:24.198Z,11.60
2023-05-25T20:15:52.714Z,11.53
2023-05-25T20:18:24.038Z,11.44
2023-05-25T20:20:52.305Z,11.37
2023-05-25T20:23:20.728Z,11.31
2023-05-25T20:25:48.929Z,11.23
2023-05-25T20:28:17.373Z,11.18
2023-05-25T20:30:45.859Z,11.15
2023-05-25T20:33:14.272Z,11.13
2023-05-25T20:35:42.676Z,11.11
2023-05-25T20:38:11.103Z,11.03
2023-05-25T20:40:39.389Z,11.00
2023-05-25T20:43:07.721Z,10.96
2023-05-25T20:45:36.292Z,10.90
2023-05-25T20:48:05.186Z,10.84
2023-05-25T20:50:33.469Z,10.75
2023-05-25T20:53:01.822Z,10.70
2023-05-25T20:55:30.581Z,10.68
2023-05-25T20:58:00.959Z,10.66
2023-05-25T21:00:29.281Z,10.63
2023-05-25T21:02:57.751Z,10.55
2023-05-25T21:05:26.352Z,10.48
2023-05-25T21:07:54.638Z,10.40
2023-05-25T21:10:22.947Z,10.32
2023-05-25T21:12:51.269Z,10.28
2023-05-25T21:15:19.664Z,10.23
2023-05-25T21:17:48.090Z,10.20
2023-05-25T21:20:16.569Z,10.21
2023-05-25T21:22:44.908Z,10.21
2023-05-25T21:25:13.278Z,10.17
2023-05-25T21:27:41.553Z,10.11
2023-05-25T21:30:10.225Z,10.05
2023-05-25T21:32:38.589Z,9.97
2023-05-25T21:35:07.071Z,9.92
2023-05-25T21:37:35.347Z,9.89
2023-05-25T21:40:03.708Z,9.83
2023-05-25T21:42:31.933Z,9.76
2023-05-25T21:45:00.344Z,9.70
2023-05-25T21:47:28.681Z,9.62
2023-05-25T21:49:57.497Z,9.53
2023-05-25T21:52:25.697Z,9.43
2023-05-25T21:54:53.973Z,9.38
2023-05-25T21:57:22.372Z,9.36
2023-05-25T21:59:50.847Z,9.31
2023-05-25T22:02:19.258Z,9.31
2023-05-25T22:04:47.684Z,9.28
2023-05-25T22:07:16.387Z,9.23
2023-05-25T22:09:44.750Z,9.16
2023-05-25T22:12:13.254Z,9.07
2023-05-25T22:14:41.516Z,9.03
2023-05-25T22:17:09.972Z,9.00
2023-05-25T22:19:38.319Z,8.99
2023-05-25T22:22:07.085Z,8.96
2023-05-25T22:24:35.449Z,8.92
2023-05-25T22:27:03.837Z,8.88
2023-05-25T22:29:32.137Z,8.84
2023-05-25T22:32:00.514Z,8.81
2023-05-25T22:34:28.802Z,8.79
2023-05-25T22:36:57.096Z,8.76
2023-05-25T22:39:25.461Z,8.70
2023-05-25T22:41:53.648Z,8.67
2023-05-25T22:44:21.987Z,8.67
2023-05-25T22:46:50.253Z,8.64
2023-05-25T22:49:18.511Z,8.63
2023-05-25T22:51:46.740Z,8.63
2023-05-25T22:54:15.001Z,8.63
2023-05-25T22:56:43.426Z,8.61
2023-05-25T22:59:12.280Z,8.58
2023-05-25T23:01:40.645Z,8.53
2023-05-25T23:04:09.327Z,8.52
2023-05-25T23:06:37.793Z,8.53
2023-05-25T23:09:06.159Z,8.53
2023-05-25T23:11:34.487Z,8.47
2023-05-25T23:14:02.962Z,8.43
2023-05-25T23:16:31.406Z,8.42
2023-05-25T23:19:00.127Z,8.42
2023-05-25T23:21:28.495Z,8.41
2023-05-25T23:23:56.796Z,8.43
2023-05-25T23:26:25.272Z,8.46
2023-05-25T23:28:53.665Z,8.50
2023-05-25T23:31:22.086Z,8.53
2023-05-25T23:33:50.437Z,8.54
2023-05-25T23:36:18.757Z,8.52
2023-05-25T23:38:47.138Z,8.50
2023-05-25T23:41:16.778Z,8.46
2023-05-25T23:43:46.696Z,8.42
2023-05-25T23:46:16.538Z,8.44
2023-05-25T23:48:46.232Z,8.46
2023-05-25T23:51:14.484Z,8.50
2023-05-25T23:53:42.751Z,8.54
2023-05-25T23:56:10.951Z,8.58
2023-05-25T23:58:39.752Z,8.58
